Impacts TAF Board
For situational awareness. Not to be used for flight planning purposes.
IDs:

KCLL - College Station/East, TX, US

Issued at 0526 UTC 18 Sep 2021
Updated at 0713 UTC 18 Sep 2021
Potential Impact None Slight Moderate High
Time0653Z 18/08Z 18/09Z 18/10Z 18/11Z 18/12Z 18/13Z 18/14Z 18/15Z 18/16Z 18/17Z 18/18Z 18/19Z 18/20Z>>
Type OBS PRVL PRVL PRVL PRVL PRVL PRVL PRVL PRVL PRVL PRVL PRVL PRVL PRVL
VIS 10 >6 >6 >6 >6 >6 >6 >6 >6 >6 >6 >6 >6 >6
CIG -- -- -- -- -- -- -- -- -- -- -- -- -- --
Cover CLR FEW FEW FEW FEW FEW FEW FEW FEW FEW FEW SCT SCT SCT
FltCat VFR VFR VFR VFR VFR VFR VFR VFR VFR VFR VFR VFR VFR VFR
WX -- -- -- -- -- -- -- -- -- -- -- VCSH VCSH VCSH
WDir VRB VRB VRB VRB VRB VRB VRB VRB VRB VRB VRB 10 10 10
WSpd 0 0 0 0 0 0 0 0 0 0 0 6 6 6
WGst -- -- -- -- -- -- -- -- -- -- -- -- -- --
Raw TAF
KCLL 180526Z 1806/1906 00000KT P6SM FEW050
  FM181800 01006KT P6SM VCSH SCT050
  FM182100 03009KT P6SM VCTS SCT040CB
  FM190100 VRB04KT P6SM FEW050


Raw METAR
KCLL 180653Z AUTO 00000KT 10SM CLR 25/20 A3000 RMK AO2 SLP153 T02500200
KCLL 180553Z AUTO 00000KT 10SM CLR 25/19 A2999 RMK AO2 SLP151 T02500194 10328 20244 403440206 53004
KCLL 180453Z AUTO 00000KT 10SM CLR 26/19 A2998 RMK AO2 SLP147 T02610194

METAR Board
Radar Display
Forecast Discussion
For situational awareness. Not to be used for flight planning purposes.